Date,TemperatureHighF,TemperatureAvgF,TemperatureLowF,DewpointHighF,DewpointAvgF,DewpointLowF,HumidityHigh,HumidityAvg,HumidityLow,PressureMaxIn,PressureMinIn,WindSpeedMaxMPH,WindSpeedAvgMPH,GustSpeedMaxMPH,PrecipitationSumIn
2014-1-1,14.4,10.0,0.4,10.3,3.5,-3.0,92,75,61,30.43,30.32,6,0,7,0.00
2014-1-2,12.7,9.1,-4.0,7.9,3.0,-8.0,85,76,62,30.33,30.19,7,1,14,0.00
2014-1-3,14.7,4.4,-9.0,5.4,-2.6,-13.0,83,73,61,30.42,30.02,7,1,14,0.00
2014-1-4,31.0,23.7,14.1,27.1,16.8,5.0,93,75,65,30.02,29.79,13,2,16,0.00
2014-1-5,29.4,23.9,16.2,27.8,21.5,13.2,94,91,85,30.04,29.66,9,1,11,0.00
2014-1-6,16.2,6.7,-7.0,13.2,2.3,-12.0,88,82,71,30.01,29.66,11,1,22,0.00
2014-1-7,9.6,-1.4,-11.0,3.8,-6.5,-16.0,92,78,70,30.26,30.00,15,1,19,0.00
2014-1-8,16.2,5.8,0.0,9.6,1.7,-4.0,93,82,74,30.51,30.26,6,0,9,0.00
2014-1-9,16.6,7.3,-2.0,13.1,3.6,-6.0,97,84,77,30.59,30.27,2,0,5,0.01
2014-1-10,38.7,29.3,16.7,37.3,27.0,13.2,96,91,86,30.27,29.57,5,0,10,0.82
2014-1-11,40.5,37.7,33.0,39.4,35.4,28.9,96,92,82,29.57,29.23,13,2,14,0.37
2014-1-12,38.7,34.9,33.1,30.9,28.9,27.4,89,79,71,29.83,29.57,9,2,15,0.00
2014-1-13,41.2,36.9,32.5,35.6,32.1,28.3,91,83,75,29.63,29.46,5,1,10,0.01
2014-1-14,37.2,31.8,22.8,31.6,26.6,20.5,94,81,69,29.73,29.59,10,1,15,0.00
2014-1-15,29.5,24.4,20.4,24.3,17.1,12.3,87,74,62,29.94,29.59,7,1,13,0.00
2014-1-16,26.7,22.8,18.2,24.6,18.0,12.2,92,82,74,29.85,29.56,10,1,14,0.00
2014-1-17,31.0,25.3,20.9,29.2,20.4,15.1,94,82,71,29.85,29.54,9,2,14,0.00
2014-1-18,23.6,20.4,16.2,19.2,16.1,12.4,87,84,78,29.87,29.78,5,0,7,0.00
2014-1-19,30.0,24.2,11.7,26.2,20.4,9.0,90,85,80,29.78,29.45,13,2,20,0.00
2014-1-20,28.8,18.2,6.2,26.2,11.2,-2.0,90,74,62,30.12,29.47,5,0,13,0.00
2014-1-21,12.9,4.2,-5.0,0.1,-3.7,-9.0,81,69,51,30.25,30.11,5,0,11,0.01
2014-1-22,12.8,4.7,-8.0,8.5,0.6,-12.0,86,82,78,30.20,29.90,4,0,7,0.00
2014-1-23,16.7,7.4,-4.0,6.6,0.8,-9.0,87,75,53,30.46,29.95,5,0,10,0.00
2014-1-24,18.9,9.4,-4.0,15.4,3.8,-8.0,97,78,63,30.41,29.37,24,3,24,0.00
2014-1-25,25.3,15.6,0.3,23.5,9.1,-5.0,93,76,50,29.73,29.22,19,2,22,0.00
2014-1-26,20.9,10.2,-2.0,16.8,6.0,-6.0,92,83,75,29.73,29.33,9,1,17,0.00
2014-1-27,16.6,6.0,-3.0,10.0,-3.6,-9.0,77,64,48,30.25,29.42,16,2,19,0.00
2014-1-28,11.3,2.0,-6.0,3.7,-3.5,-10.0,92,77,64,30.28,30.08,12,2,19,0.00
2014-1-29,20.2,12.1,0.9,9.2,4.7,-3.0,92,72,61,30.09,29.97,14,2,22,0.00
2014-1-30,28.0,21.8,12.6,25.4,13.3,4.0,90,70,57,30.04,29.66,16,3,18,0.00
2014-1-31,31.5,24.6,14.9,27.6,18.0,11.7,91,76,62,30.11,29.73,6,1,12,0.00
2014-2-1,25.2,20.3,12.9,22.6,17.6,10.2,91,89,87,30.12,29.84,4,0,6,0.00
2014-2-2,26.1,18.7,2.5,19.5,13.7,0.0,92,81,62,30.28,29.98,4,0,7,0.00
2014-2-3,20.8,6.4,-9.0,11.5,1.3,-13.0,97,80,66,30.37,30.26,5,0,11,0.00
2014-2-4,22.9,14.4,3.4,16.1,9.5,0.1,97,81,70,30.44,30.20,3,0,5,0.00
2014-2-5,23.9,19.6,11.5,18.7,13.2,5.0,90,77,53,30.35,30.03,12,1,15,0.00
2014-2-6,19.3,12.4,4.3,13.4,6.5,0.3,85,77,67,30.35,30.20,12,1,20,0.00
2014-2-7,16.6,11.1,4.2,8.0,4.6,0.0,92,75,66,30.23,30.19,13,2,19,0.00
2014-2-8,19.1,9.9,-2.0,13.3,5.4,-5.0,87,82,73,30.27,30.15,5,0,7,0.00
2014-2-9,24.7,16.9,8.0,16.3,12.1,4.9,89,82,63,30.15,30.01,4,0,7,0.00
2014-2-10,17.9,11.2,2.1,8.9,5.0,-1.0,87,76,62,30.38,30.14,9,0,11,0.00
2014-2-11,14.9,8.3,-2.0,3.4,-0.2,-6.0,92,68,54,30.50,30.38,4,0,7,0.00
2014-2-12,19.2,7.2,-7.0,10.7,1.1,-11.0,89,76,62,30.43,30.07,5,0,6,0.00
2014-2-13,32.6,23.2,8.3,21.7,14.1,4.1,92,69,45,30.07,29.47,7,0,11,0.01
2014-2-14,29.4,24.9,13.2,23.1,19.0,6.7,89,78,67,29.81,29.41,7,1,12,0.00
2014-2-15,20.9,12.0,2.5,9.9,4.9,-1.0,83,73,58,30.04,29.81,5,0,12,0.00
2014-2-16,24.9,15.0,0.0,18.4,10.3,-4.0,88,82,74,30.36,29.94,6,0,10,0.00
2014-2-17,21.7,9.1,-7.0,15.4,3.3,-11.0,90,78,53,30.39,29.66,7,1,16,0.00
2014-2-18,40.9,26.2,15.3,31.2,20.5,11.6,90,80,68,29.93,29.58,9,1,18,0.02
2014-2-19,46.6,35.4,23.5,32.2,27.3,20.7,92,74,54,29.96,29.56,11,1,15,0.33
2014-2-20,39.1,32.9,26.1,35.3,29.4,22.2,95,87,63,29.98,29.31,8,1,15,0.63
2014-2-21,42.2,33.6,28.5,41.1,27.0,17.5,96,77,63,29.61,29.26,20,6,32,0.01
2014-2-22,32.8,27.5,23.1,20.1,17.2,15.5,74,65,55,29.92,29.61,20,4,25,0.00
2014-2-23,27.6,22.5,16.5,17.1,12.7,10.3,79,66,51,30.01,29.91,11,2,20,0.00
2014-2-24,22.5,17.8,7.6,13.4,9.4,2.8,83,70,60,30.16,29.99,6,1,15,0.00
2014-2-25,23.4,14.3,6.4,13.7,7.3,2.8,89,74,55,30.14,29.97,11,1,25,0.00
2014-2-26,15.5,8.5,-2.0,7.3,1.2,-6.0,85,72,58,30.07,29.54,14,2,23,0.00
2014-2-27,11.8,5.8,-7.0,7.9,-4.2,-14.0,87,63,42,30.23,29.48,9,1,18,0.00
2014-2-28,17.5,4.5,-13.0,10.5,-5.3,-18.0,80,64,47,30.35,30.07,5,0,10,0.00
2014-3-1,23.2,18.6,11.3,17.9,11.9,5.0,89,75,55,30.30,30.03,5,0,9,0.04
2014-3-2,17.0,9.3,0.5,5.2,-0.6,-8.0,81,64,46,30.39,30.27,4,0,12,0.01
2014-3-3,12.7,1.6,-14.0,0.1,-6.7,-19.0,89,67,53,30.49,30.38,5,0,12,0.00
2014-3-4,19.0,13.9,6.0,12.2,7.5,-2.0,83,75,67,30.39,30.19,5,0,6,0.00
2014-3-5,21.9,14.0,6.1,13.6,8.2,2.8,88,78,61,30.56,30.26,9,1,12,0.00
2014-3-6,28.2,12.8,-4.0,12.9,5.0,-8.0,88,72,49,30.55,30.15,5,0,10,0.00
2014-3-7,43.0,25.7,5.3,28.6,16.9,2.0,88,71,49,30.15,29.84,6,1,13,0.04
2014-3-8,39.3,30.5,21.0,29.5,22.9,14.0,82,73,62,30.16,29.87,5,0,9,0.00
2014-3-9,35.7,24.2,9.5,26.3,17.6,6.4,88,76,63,30.17,29.75,12,2,16,0.00
2014-3-10,49.9,39.3,29.3,37.4,32.5,24.6,91,77,61,29.75,29.45,11,1,13,0.00
2014-3-11,51.4,40.7,34.3,36.5,33.4,29.7,91,76,51,29.75,29.55,5,0,9,0.00
2014-3-12,34.9,25.2,12.3,30.8,17.2,1.4,91,72,46,30.03,29.67,11,2,17,0.02
2014-3-13,26.6,15.3,1.1,19.1,6.0,-4.0,80,66,54,30.13,29.89,10,2,15,0.00
2014-3-14,50.7,37.1,21.5,36.3,28.8,17.7,90,73,52,29.89,29.42,12,2,21,0.02
2014-3-15,39.8,31.7,16.5,33.5,20.9,7.9,83,65,50,30.31,29.62,12,1,16,0.00
2014-3-16,22.3,14.5,7.6,11.4,5.4,0.7,80,67,55,30.45,30.24,7,1,12,0.00
2014-3-17,32.3,18.8,5.0,17.2,8.7,1.2,95,66,44,30.23,29.93,7,1,11,0.00
2014-3-18,44.3,32.7,20.6,31.0,23.9,15.7,83,70,57,30.00,29.87,6,1,7,0.00
2014-3-19,42.7,36.9,31.2,41.0,34.1,27.5,95,90,84,29.87,29.51,9,1,18,0.15
2014-3-20,37.6,34.0,26.0,30.8,26.2,20.6,87,74,57,30.02,29.72,10,2,17,0.00
2014-3-21,42.7,31.3,20.0,31.0,24.0,17.5,92,76,55,30.05,29.68,5,1,11,0.00
2014-3-22,37.0,31.4,20.2,31.3,25.2,11.0,93,79,60,30.26,29.67,7,1,12,0.22
2014-3-23,25.4,19.1,10.6,10.8,8.0,4.5,77,62,49,30.37,30.26,5,0,10,0.00
2014-3-24,30.4,19.6,7.6,19.9,10.8,3.9,87,70,46,30.35,30.04,7,1,21,0.00
2014-3-25,30.7,24.2,12.8,20.3,14.0,5.8,85,66,46,30.16,29.85,14,1,15,0.00
2014-3-26,30.2,19.5,5.4,20.3,10.7,2.1,87,70,52,30.32,30.12,9,1,17,0.00
2014-3-27,38.7,34.1,29.6,36.0,28.5,20.3,94,80,63,30.12,29.55,8,1,11,0.14
2014-3-28,44.7,39.4,31.1,43.5,36.0,26.8,96,88,74,30.18,29.43,9,1,22,0.22
2014-3-29,38.0,33.5,28.9,31.2,28.2,23.9,90,81,71,30.22,30.13,9,1,13,0.02
2014-3-30,46.6,34.3,22.0,31.1,24.9,19.2,90,70,49,30.22,30.08,5,0,10,0.00
2014-3-31,61.8,44.2,28.5,41.1,32.4,24.3,87,65,43,30.14,29.86,8,1,14,0.00
2014-4-1,54.8,41.8,33.4,44.8,32.6,25.7,79,70,54,29.95,29.61,13,3,24,0.05
2014-4-2,54.2,38.2,26.1,31.4,26.5,21.8,86,64,38,30.18,29.95,9,0,11,0.00
2014-4-3,37.9,33.6,32.0,30.1,28.2,24.8,89,81,60,30.18,29.89,13,2,17,0.03
2014-4-4,42.5,36.5,34.3,41.4,33.4,29.1,100,89,80,29.83,29.35,13,2,24,0.49
2014-4-5,48.5,36.7,29.4,29.2,24.7,20.8,80,63,38,30.13,29.64,12,2,19,0.00
2014-4-6,56.0,41.6,26.0,35.8,29.6,22.7,90,65,41,30.15,29.96,10,1,12,0.00
2014-4-7,57.2,42.2,29.7,35.5,31.0,26.0,89,66,41,29.97,29.51,6,1,12,0.00
2014-4-8,62.6,48.5,38.9,39.7,33.4,28.1,77,57,38,29.79,29.46,10,1,14,0.00
2014-4-9,57.5,45.8,30.2,34.1,29.3,23.9,80,54,37,29.95,29.79,9,1,17,0.00
2014-4-10,65.9,53.5,46.3,45.6,39.0,31.9,69,58,43,29.82,29.54,16,3,24,0.00
2014-4-11,65.1,49.9,32.4,36.4,31.0,27.0,83,52,29,29.98,29.82,11,1,16,0.00
2014-4-12,62.9,45.7,34.4,48.1,37.5,28.1,100,75,43,30.06,29.79,11,2,19,1.19
2014-4-13,66.0,56.1,49.5,58.9,53.1,48.1,96,90,74,29.82,29.53,10,1,16,0.79
2014-4-14,64.0,48.1,27.5,60.8,43.2,24.4,97,83,68,29.83,29.26,13,2,27,0.37
2014-4-15,35.7,28.6,24.2,24.6,18.2,11.7,90,67,41,30.21,29.80,9,1,14,0.04
2014-4-16,46.8,33.6,21.1,29.0,21.7,16.5,89,63,42,30.42,30.21,9,1,13,0.01
2014-4-17,65.4,47.4,32.5,41.7,32.0,22.5,70,56,38,30.34,30.12,11,2,16,0.00
2014-4-18,60.9,49.3,36.0,41.8,38.2,32.5,87,67,43,30.35,30.18,6,1,11,0.00
2014-4-19,56.1,41.4,27.5,40.8,33.6,25.2,93,75,53,30.46,30.29,9,1,14,0.00
2014-4-20,72.5,52.9,33.4,44.9,37.3,31.3,93,61,28,30.30,30.00,9,1,11,0.00
2014-4-21,79.5,63.8,54.2,56.6,48.8,40.4,93,60,39,30.00,29.66,14,1,22,0.09
2014-4-22,57.2,45.9,37.7,55.7,38.5,30.1,95,76,63,29.94,29.62,13,2,18,0.02
2014-4-23,60.1,44.4,31.7,33.2,27.7,20.2,88,58,23,30.09,29.94,9,1,12,0.00
2014-4-24,59.6,46.8,33.6,35.5,27.6,22.0,78,49,29,30.14,29.84,13,1,16,0.00
2014-4-25,56.8,45.7,40.6,46.5,37.8,27.1,93,75,49,29.86,29.66,5,0,12,0.26
2014-4-26,50.3,45.6,41.0,39.4,36.5,33.9,83,71,61,30.09,29.83,7,1,14,0.00
2014-4-27,51.9,46.8,35.6,37.1,34.6,31.0,89,63,51,30.18,30.08,12,4,16,0.00
2014-4-28,58.4,48.1,42.8,40.3,35.1,30.2,73,61,44,30.09,29.77,17,3,24,0.00
2014-4-29,71.9,53.2,44.2,59.2,47.1,34.5,96,81,51,29.78,29.52,9,1,21,0.62
2014-4-30,63.2,57.2,51.1,54.3,51.8,49.4,95,83,66,29.73,29.66,6,1,10,0.02
2014-5-1,54.9,46.6,39.0,49.0,41.4,36.1,91,82,72,29.70,29.64,12,2,24,0.03
2014-5-2,54.8,48.5,44.5,45.8,43.7,40.5,93,84,69,29.70,29.63,17,2,17,0.04
2014-5-3,58.1,50.2,45.5,48.9,43.2,37.6,100,79,52,29.78,29.54,21,2,23,0.23
2014-5-4,57.7,46.7,38.0,41.9,37.2,33.9,92,72,44,30.05,29.77,8,1,17,0.08
2014-5-5,59.0,44.8,33.6,44.3,38.3,31.5,94,79,50,30.09,29.93,4,0,9,0.00
2014-5-6,60.4,49.3,37.2,44.7,39.7,34.8,95,71,53,30.09,29.97,11,2,14,0.00
2014-5-7,60.0,48.6,42.1,49.5,42.7,32.6,93,81,65,30.10,29.91,10,1,18,0.42
2014-5-8,81.0,62.6,48.8,67.3,55.1,44.1,91,78,60,29.97,29.77,6,0,10,0.02
2014-5-9,75.5,69.7,59.9,64.6,60.4,49.3,89,73,58,29.77,29.55,14,3,25,0.06
2014-5-10,59.6,53.8,49.8,49.4,46.2,43.8,81,76,69,29.80,29.69,7,2,13,0.00
2014-5-15,41.0,39.4,38.3,34.7,33.9,33.3,83,81,78,29.95,29.94,2,0,9,1.07
2014-5-16,51.2,43.9,35.5,39.3,36.0,32.5,90,75,58,30.00,29.94,6,0,10,0.00
2014-5-17,55.1,44.1,33.9,45.4,37.8,31.8,94,80,55,30.11,29.99,11,1,13,0.20
2014-5-18,68.1,54.9,38.7,44.4,40.4,37.1,95,62,36,30.16,30.10,12,2,17,0.00
2014-5-19,72.1,59.2,43.5,50.1,44.2,39.9,90,61,37,30.22,30.05,7,1,13,0.00
2014-5-20,73.9,58.4,52.4,63.7,52.7,45.2,92,82,56,30.13,29.80,9,1,14,0.21
2014-5-21,83.3,67.9,54.3,68.1,57.2,47.6,96,73,29,29.83,29.72,10,1,14,0.03
2014-5-22,71.6,63.1,53.8,53.4,47.0,43.8,69,56,48,30.03,29.93,10,1,15,0.00
2014-5-23,72.5,57.8,46.7,56.8,48.9,42.4,90,73,49,30.11,30.01,5,0,11,0.00
2014-5-24,79.1,67.3,45.5,55.8,50.3,43.8,95,58,35,30.17,30.05,5,0,7,0.00
2014-5-25,81.8,66.3,48.2,57.3,51.9,45.6,93,64,38,30.11,29.97,7,1,14,0.00
2014-5-26,84.8,76.7,55.3,66.1,61.6,52.7,91,61,45,29.98,29.83,11,2,16,0.00
2014-5-27,79.8,71.8,64.5,71.1,66.5,62.0,94,84,70,29.85,29.77,6,0,9,0.00
2014-5-28,70.7,62.3,52.3,63.7,54.2,49.2,94,76,56,30.07,29.84,8,1,13,0.02
2014-5-29,76.4,61.1,45.1,59.9,52.9,43.6,96,77,52,30.13,30.05,5,0,7,0.00
2014-5-30,86.7,66.3,49.1,61.6,54.7,47.7,96,71,41,30.17,30.05,6,0,9,0.00
2014-5-31,85.2,76.8,64.9,60.1,55.7,52.2,73,49,38,30.20,30.06,5,0,7,0.00
2014-6-1,87.5,72.5,52.6,61.8,55.2,47.6,87,57,37,30.11,29.87,7,1,13,0.00
2014-6-2,84.5,74.6,67.9,71.6,64.5,56.0,92,71,58,29.89,29.66,17,2,19,0.26
2014-6-3,69.1,61.1,59.0,66.2,55.5,53.8,91,82,78,29.83,29.72,2,0,22,0.25
2014-6-4,72.4,63.5,54.0,57.5,53.3,48.4,95,71,44,29.86,29.76,3,0,7,0.01
2014-6-5,79.2,64.0,47.8,53.7,48.4,44.5,89,60,33,29.91,29.83,5,0,10,0.00
2014-6-6,82.6,64.2,45.6,58.4,50.3,43.2,94,65,35,29.95,29.89,3,0,6,0.00
2014-6-7,84.9,69.5,51.8,60.1,54.3,49.5,93,63,33,30.00,29.81,4,0,7,0.00
2014-6-8,80.4,70.2,60.2,63.5,60.1,53.8,92,72,52,29.96,29.81,5,0,9,0.03
2014-6-9,79.4,66.2,52.5,62.2,55.4,47.4,91,70,50,30.00,29.89,5,0,11,0.00
2014-6-10,61.5,56.3,54.0,55.3,52.1,50.2,93,86,77,29.93,29.91,0,0,3,0.00